createdAt,value
2018-01-18T00:02:26.620Z,2.30
2018-01-18T00:04:54.318Z,2.53
2018-01-18T00:07:22.463Z,2.03
2018-01-18T00:09:50.578Z,1.85
2018-01-18T00:12:18.253Z,2.20
2018-01-18T00:14:46.783Z,2.40
2018-01-18T00:17:15.643Z,3.03
2018-01-18T00:19:43.358Z,2.75
2018-01-18T00:22:11.415Z,3.20
2018-01-18T00:24:39.414Z,3.33
2018-01-18T00:27:07.536Z,2.53
2018-01-18T00:29:36.287Z,3.55
2018-01-18T00:32:04.886Z,2.15
2018-01-18T00:34:32.496Z,2.80
2018-01-18T00:37:00.549Z,2.67
2018-01-18T00:39:28.426Z,4.18
2018-01-18T00:41:56.584Z,5.95
2018-01-18T00:44:25.218Z,3.00
2018-01-18T00:46:52.912Z,2.65
2018-01-18T00:49:20.715Z,5.93
2018-01-18T00:51:50.235Z,3.28
2018-01-18T00:54:18.014Z,5.40
2018-01-18T00:56:46.093Z,5.15
2018-01-18T00:59:14.605Z,3.30
2018-01-18T01:01:44.376Z,4.25
2018-01-18T01:04:12.040Z,4.43
2018-01-18T01:06:39.752Z,5.50
2018-01-18T01:09:07.486Z,4.40
2018-01-18T01:11:35.483Z,4.90
2018-01-18T01:14:04.628Z,5.00
2018-01-18T01:16:32.502Z,3.50
2018-01-18T01:19:00.113Z,3.08
2018-01-18T01:21:28.589Z,3.95
2018-01-18T01:23:56.325Z,3.45
2018-01-18T01:26:24.666Z,3.80
2018-01-18T01:28:52.715Z,3.50
2018-01-18T01:31:20.454Z,6.22
2018-01-18T01:33:50.238Z,6.05
2018-01-18T01:36:18.089Z,3.67
2018-01-18T01:38:47.040Z,4.35
2018-01-18T01:41:15.119Z,3.70
2018-01-18T01:43:43.087Z,5.50
2018-01-18T01:46:10.816Z,4.05
2018-01-18T01:48:38.667Z,3.87
2018-01-18T01:51:07.249Z,4.68
2018-01-18T01:53:35.228Z,4.93
2018-01-18T01:56:04.131Z,3.20
2018-01-18T01:58:32.502Z,3.42
2018-01-18T02:01:00.246Z,3.40
2018-01-18T02:03:28.265Z,3.55
2018-01-18T02:05:55.886Z,3.83
2018-01-18T02:08:23.788Z,3.60
2018-01-18T02:10:53.295Z,3.00
2018-01-18T02:13:20.871Z,2.80
2018-01-18T02:15:49.430Z,3.80
2018-01-18T02:18:17.399Z,3.22
2018-01-18T02:20:45.415Z,7.03
2018-01-18T02:23:13.569Z,3.90
2018-01-18T02:25:41.225Z,3.53
2018-01-18T02:28:08.851Z,3.58
2018-01-18T02:30:37.351Z,2.85
2018-01-18T02:33:05.099Z,3.55
2018-01-18T02:35:33.776Z,2.90
2018-01-18T02:38:01.481Z,2.67
2018-01-18T02:40:29.338Z,3.65
2018-01-18T02:42:57.205Z,5.28
2018-01-18T02:45:24.972Z,3.90
2018-01-18T02:47:53.009Z,3.05
2018-01-18T02:50:20.656Z,2.62
2018-01-18T02:52:48.361Z,5.53
2018-01-18T02:55:15.945Z,2.50
2018-01-18T02:57:43.602Z,2.67
2018-01-18T03:00:11.306Z,3.70
2018-01-18T03:02:38.874Z,2.53
2018-01-18T03:05:06.581Z,4.70
2018-01-18T03:07:34.341Z,3.92
2018-01-18T03:10:02.185Z,3.58
2018-01-18T03:12:29.957Z,4.65
2018-01-18T03:14:57.915Z,2.65
2018-01-18T03:17:25.696Z,3.58
2018-01-18T03:19:53.298Z,2.78
2018-01-18T03:22:21.037Z,4.80
2018-01-18T03:24:48.922Z,3.15
2018-01-18T03:27:16.785Z,2.65
2018-01-18T03:29:44.458Z,2.20
2018-01-18T03:32:12.208Z,2.45
2018-01-18T03:34:40.115Z,2.62
2018-01-18T03:37:07.760Z,2.83
2018-01-18T03:39:35.499Z,2.45
2018-01-18T03:42:03.152Z,2.60
2018-01-18T03:44:30.981Z,2.53
2018-01-18T03:46:58.797Z,2.80
2018-01-18T03:49:26.410Z,3.15
2018-01-18T03:51:54.398Z,3.97
2018-01-18T03:54:22.230Z,2.62
2018-01-18T03:56:52.348Z,2.40
2018-01-18T03:59:20.287Z,3.25
2018-01-18T04:01:49.594Z,3.05
2018-01-18T04:04:18.508Z,3.00
2018-01-18T04:06:47.106Z,3.28
2018-01-18T04:09:15.745Z,3.75
2018-01-18T04:11:43.447Z,4.40
2018-01-18T04:16:35.877Z,3.53
2018-01-18T04:19:03.668Z,3.95
2018-01-18T04:21:32.443Z,5.40
2018-01-18T04:24:00.709Z,2.90
2018-01-18T04:26:28.574Z,2.83
2018-01-18T04:28:56.293Z,3.33
2018-01-18T04:31:23.969Z,3.75
2018-01-18T04:33:51.662Z,3.17
2018-01-18T04:36:19.287Z,3.03
2018-01-18T04:38:47.372Z,2.78
2018-01-18T04:41:16.312Z,4.70
2018-01-18T04:43:43.936Z,4.95
2018-01-18T04:46:11.664Z,5.10
2018-01-18T04:48:39.294Z,4.00
2018-01-18T04:51:06.843Z,2.92
2018-01-18T04:53:34.532Z,4.45
2018-01-18T04:56:02.113Z,6.93
2018-01-18T04:58:29.802Z,3.30
2018-01-18T05:00:57.508Z,3.22
2018-01-18T05:03:25.996Z,5.60
2018-01-18T05:05:53.648Z,4.40
2018-01-18T05:08:21.777Z,3.20
2018-01-18T05:10:50.947Z,3.87
2018-01-18T05:13:18.671Z,11.15
2018-01-18T05:15:47.090Z,3.78
2018-01-18T05:18:14.774Z,5.57
2018-01-18T05:20:42.450Z,5.57
2018-01-18T05:23:10.287Z,5.53
2018-01-18T05:25:38.378Z,12.85
2018-01-18T05:28:06.880Z,4.55
2018-01-18T05:30:34.554Z,6.80
2018-01-18T05:33:02.945Z,5.47
2018-01-18T05:35:30.862Z,4.37
2018-01-18T05:37:58.776Z,4.25
2018-01-18T05:40:26.478Z,3.72
2018-01-18T05:42:54.732Z,3.85
2018-01-18T05:45:22.436Z,4.50
2018-01-18T05:47:50.059Z,3.47
2018-01-18T05:50:17.878Z,4.82
2018-01-18T05:52:46.079Z,5.60
2018-01-18T05:55:13.983Z,4.87
2018-01-18T05:57:41.954Z,6.20
2018-01-18T06:00:09.824Z,4.68
2018-01-18T06:02:37.402Z,4.30
2018-01-18T06:05:05.379Z,4.12
2018-01-18T06:07:33.221Z,4.10
2018-01-18T06:10:00.886Z,7.55
2018-01-18T06:12:29.671Z,4.90
2018-01-18T06:14:57.529Z,4.50
2018-01-18T06:17:25.698Z,7.22
2018-01-18T06:19:53.299Z,6.72
2018-01-18T06:22:21.130Z,5.00
2018-01-18T06:24:48.945Z,5.65
2018-01-18T06:27:17.928Z,4.15
2018-01-18T06:29:45.812Z,4.43
2018-01-18T06:32:14.422Z,4.65
2018-01-18T06:34:42.072Z,7.55
2018-01-18T06:37:09.702Z,3.45
2018-01-18T06:39:38.523Z,4.93
2018-01-18T06:42:07.616Z,6.37
2018-01-18T06:44:35.294Z,7.60
2018-01-18T06:47:03.890Z,5.50
2018-01-18T06:49:32.479Z,3.53
2018-01-18T06:52:00.267Z,11.15
2018-01-18T06:54:28.878Z,4.85
2018-01-18T06:56:57.218Z,4.87
2018-01-18T06:59:25.137Z,7.25
2018-01-18T07:01:52.834Z,6.05
2018-01-18T07:04:20.569Z,5.45
2018-01-18T07:06:48.333Z,5.45
2018-01-18T07:09:16.117Z,7.47
2018-01-18T07:11:44.064Z,6.70
2018-01-18T07:14:11.690Z,5.20
2018-01-18T07:16:39.715Z,6.22
2018-01-18T07:19:07.350Z,6.12
2018-01-18T07:21:34.912Z,5.20
2018-01-18T07:24:02.982Z,9.02
2018-01-18T07:26:30.651Z,5.13
2018-01-18T07:28:58.418Z,6.70
2018-01-18T07:31:26.192Z,5.07
2018-01-18T07:33:53.851Z,5.30
2018-01-18T07:36:21.449Z,3.77
2018-01-18T07:38:49.839Z,3.40
2018-01-18T07:41:17.553Z,5.80
2018-01-18T07:43:45.245Z,4.33
2018-01-18T07:46:13.101Z,5.53
2018-01-18T07:48:40.705Z,4.10
2018-01-18T07:51:08.527Z,5.27
2018-01-18T07:53:36.322Z,7.33
2018-01-18T07:56:04.126Z,5.03
2018-01-18T07:58:31.801Z,4.90
2018-01-18T08:00:59.552Z,5.70
2018-01-18T08:03:42.075Z,8.23
2018-01-18T08:06:09.881Z,4.07
2018-01-18T08:08:37.670Z,4.27
2018-01-18T08:11:05.846Z,4.60
2018-01-18T08:13:33.518Z,4.97
2018-01-18T08:16:01.920Z,5.83
2018-01-18T08:18:29.589Z,6.00
2018-01-18T08:20:57.308Z,4.43
2018-01-18T08:23:25.060Z,6.50
2018-01-18T08:25:52.674Z,3.87
2018-01-18T08:28:20.814Z,3.03
2018-01-18T08:30:48.866Z,6.30
2018-01-18T08:33:16.570Z,5.90
2018-01-18T08:35:44.230Z,6.23
2018-01-18T08:38:12.257Z,5.40
2018-01-18T08:40:39.931Z,4.43
2018-01-18T08:43:07.748Z,5.50
2018-01-18T08:45:35.644Z,7.20
2018-01-18T08:48:03.505Z,5.17
2018-01-18T08:50:31.101Z,4.20
2018-01-18T08:52:58.779Z,4.40
2018-01-18T08:55:26.454Z,4.90
2018-01-18T08:57:54.971Z,7.57
2018-01-18T09:00:22.768Z,5.50
2018-01-18T09:02:50.446Z,4.80
2018-01-18T09:05:18.094Z,5.70
2018-01-18T09:07:45.861Z,5.40
2018-01-18T09:10:13.665Z,5.13
2018-01-18T09:12:41.335Z,4.17
2018-01-18T09:15:09.097Z,3.90
2018-01-18T09:17:37.122Z,4.33
2018-01-18T09:20:04.822Z,4.40
2018-01-18T09:22:32.558Z,4.53
2018-01-18T09:25:00.701Z,6.33
2018-01-18T09:27:28.349Z,5.83
2018-01-18T09:29:56.447Z,4.87
2018-01-18T09:32:24.212Z,5.27
2018-01-18T09:34:51.808Z,4.97
2018-01-18T09:37:19.618Z,5.87
2018-01-18T09:39:47.394Z,3.77
2018-01-18T09:42:15.000Z,4.60
2018-01-18T09:44:42.639Z,4.20
2018-01-18T09:47:10.359Z,4.60
2018-01-18T09:49:38.025Z,6.33
2018-01-18T09:52:05.992Z,5.83
2018-01-18T09:54:35.912Z,3.90
2018-01-18T09:57:03.518Z,4.70
2018-01-18T09:59:31.133Z,6.67
2018-01-18T10:01:58.884Z,5.13
2018-01-18T10:04:26.758Z,7.30
2018-01-18T10:06:55.118Z,8.10
2018-01-18T10:09:22.910Z,4.03
2018-01-18T10:11:50.654Z,5.40
2018-01-18T10:14:18.272Z,6.83
2018-01-18T10:16:45.935Z,6.03
2018-01-18T10:19:13.537Z,4.50
2018-01-18T10:21:41.063Z,6.40
2018-01-18T10:24:09.353Z,3.70
2018-01-18T10:26:37.130Z,5.40
2018-01-18T10:29:04.853Z,7.63
2018-01-18T10:31:32.565Z,8.67
2018-01-18T10:34:00.176Z,5.00
2018-01-18T10:36:28.325Z,5.03
2018-01-18T10:38:56.109Z,5.37
2018-01-18T10:41:24.282Z,5.77
2018-01-18T10:43:51.925Z,3.80
2018-01-18T10:46:19.602Z,6.67
2018-01-18T10:48:47.347Z,3.80
2018-01-18T10:51:14.991Z,10.10
2018-01-18T10:53:43.716Z,9.07
2018-01-18T10:56:11.385Z,4.70
2018-01-18T10:58:39.055Z,7.30
2018-01-18T11:01:06.797Z,5.50
2018-01-18T11:03:34.634Z,3.87
2018-01-18T11:06:02.290Z,6.50
2018-01-18T11:08:30.022Z,5.67
2018-01-18T11:10:58.690Z,9.45
2018-01-18T11:13:26.346Z,6.70
2018-01-18T11:15:54.214Z,4.25
2018-01-18T11:18:21.855Z,5.05
2018-01-18T11:20:49.554Z,6.10
2018-01-18T11:23:17.330Z,4.45
2018-01-18T11:25:45.855Z,3.55
2018-01-18T11:28:13.547Z,4.37
2018-01-18T11:30:41.268Z,5.05
2018-01-18T11:33:08.901Z,4.27
2018-01-18T11:35:36.531Z,11.70
2018-01-18T11:38:04.320Z,3.40
2018-01-18T11:40:32.096Z,7.23
2018-01-18T11:42:59.658Z,3.70
2018-01-18T11:45:27.416Z,5.20
2018-01-18T11:47:55.535Z,4.93
2018-01-18T11:50:23.198Z,3.03
2018-01-18T11:52:51.673Z,8.50
2018-01-18T11:55:19.300Z,5.43
2018-01-18T11:57:47.052Z,5.10
2018-01-18T12:00:15.137Z,8.97
2018-01-18T12:02:42.783Z,5.60
2018-01-18T12:05:10.451Z,7.07
2018-01-18T12:07:38.151Z,4.47
2018-01-18T12:10:05.840Z,22.53
2018-01-18T12:12:33.677Z,3.55
2018-01-18T12:15:02.348Z,4.87
2018-01-18T12:17:31.128Z,7.70
2018-01-18T12:20:00.615Z,3.10
2018-01-18T12:22:28.307Z,8.60
2018-01-18T12:24:57.437Z,4.00
2018-01-18T12:27:25.042Z,5.35
2018-01-18T12:29:52.805Z,7.23
2018-01-18T12:32:20.671Z,6.90
2018-01-18T12:34:48.280Z,4.93
2018-01-18T12:37:16.809Z,6.50
2018-01-18T12:39:44.604Z,4.95
2018-01-18T12:42:13.558Z,6.15
2018-01-18T12:44:41.202Z,4.85
2018-01-18T12:47:08.925Z,5.37
2018-01-18T12:49:36.607Z,7.57
2018-01-18T12:52:04.314Z,7.22
2018-01-18T12:54:32.510Z,10.35
2018-01-18T12:57:00.221Z,6.03
2018-01-18T12:59:28.865Z,6.62
2018-01-18T13:01:57.057Z,4.13
2018-01-18T13:04:24.769Z,4.45
2018-01-18T13:06:52.954Z,7.18
2018-01-18T13:09:21.246Z,5.45
2018-01-18T13:11:49.619Z,4.35
2018-01-18T13:14:17.793Z,6.78
2018-01-18T13:16:45.537Z,9.88
2018-01-18T13:19:13.292Z,7.55
2018-01-18T13:21:41.978Z,4.87
2018-01-18T13:24:09.905Z,6.60
2018-01-18T13:26:37.541Z,3.97
2018-01-18T13:29:05.130Z,4.55
2018-01-18T13:31:33.122Z,3.80
2018-01-18T13:34:01.046Z,9.00
2018-01-18T13:36:28.973Z,3.75
2018-01-18T13:38:56.810Z,7.55
2018-01-18T13:41:24.798Z,4.70
2018-01-18T13:43:52.449Z,5.90
2018-01-18T13:46:21.270Z,9.57
2018-01-18T13:48:49.185Z,6.60
2018-01-18T13:51:16.862Z,4.40
2018-01-18T13:53:44.578Z,6.10
2018-01-18T13:56:12.406Z,5.57
2018-01-18T13:58:40.482Z,4.10
2018-01-18T14:01:08.549Z,7.47
2018-01-18T14:03:36.534Z,6.62
2018-01-18T14:06:04.746Z,4.25
2018-01-18T14:08:32.674Z,7.45
2018-01-18T14:11:05.203Z,5.90
2018-01-18T14:13:33.303Z,5.50
2018-01-18T14:16:01.487Z,6.03
2018-01-18T14:18:30.154Z,5.30
2018-01-18T14:20:57.876Z,4.85
2018-01-18T14:23:25.594Z,8.25
2018-01-18T14:25:55.660Z,5.47
2018-01-18T14:28:24.170Z,6.03
2018-01-18T14:30:52.014Z,6.68
2018-01-18T14:33:20.778Z,5.97
2018-01-18T14:35:48.509Z,7.62
2018-01-18T14:38:16.902Z,7.82
2018-01-18T14:40:44.616Z,5.85
2018-01-18T14:43:12.325Z,4.20
2018-01-18T14:45:42.621Z,7.10
2018-01-18T14:48:11.862Z,5.10
2018-01-18T14:50:39.786Z,6.60
2018-01-18T14:53:07.502Z,5.03
2018-01-18T14:55:35.492Z,6.65
2018-01-18T14:58:03.946Z,8.65
2018-01-18T15:00:31.959Z,5.68
2018-01-18T15:03:00.362Z,5.07
2018-01-18T15:05:29.041Z,5.75
2018-01-18T15:07:56.912Z,7.47
2018-01-18T15:10:25.015Z,11.40
2018-01-18T15:12:53.335Z,7.80
2018-01-18T15:15:21.664Z,7.65
2018-01-18T15:17:49.393Z,6.72
2018-01-18T15:20:18.233Z,9.95
2018-01-18T15:22:46.012Z,6.68
2018-01-18T15:25:13.679Z,5.90
2018-01-18T15:27:41.512Z,8.90
2018-01-18T15:30:09.378Z,6.12
2018-01-18T15:32:37.386Z,6.68
2018-01-18T15:35:05.028Z,4.72
2018-01-18T15:37:34.178Z,6.70
2018-01-18T15:40:02.281Z,7.15
2018-01-18T15:42:30.039Z,9.50
2018-01-18T15:44:58.634Z,10.10
2018-01-18T15:47:27.035Z,12.27
2018-01-18T15:49:54.577Z,9.77
2018-01-18T15:52:22.695Z,9.82
2018-01-18T15:54:50.801Z,11.73
2018-01-18T15:57:18.796Z,16.12
2018-01-18T16:04:51.295Z,10.25
2018-01-18T16:07:19.050Z,10.50
2018-01-18T16:09:46.792Z,7.45
2018-01-18T16:12:14.586Z,13.07
2018-01-18T16:14:43.083Z,15.85
2018-01-18T16:17:11.120Z,14.60
2018-01-18T16:19:38.777Z,18.00
2018-01-18T16:22:06.583Z,13.98
2018-01-18T16:24:35.261Z,15.05
2018-01-18T16:27:03.598Z,12.70
2018-01-18T16:29:31.511Z,15.93
2018-01-18T16:32:00.117Z,29.83
2018-01-18T16:34:28.061Z,27.13
2018-01-18T16:36:55.988Z,31.87
2018-01-18T16:39:23.733Z,21.33
2018-01-18T16:41:52.251Z,28.00
2018-01-18T16:44:23.288Z,12.70
2018-01-18T16:46:51.861Z,20.62
2018-01-18T16:49:19.655Z,20.25
2018-01-18T16:51:47.731Z,17.15
2018-01-18T16:54:16.011Z,16.00
2018-01-18T16:56:43.773Z,12.95
2018-01-18T16:59:12.604Z,9.32
2018-01-18T17:01:41.864Z,14.50
2018-01-18T17:04:12.204Z,19.17
2018-01-18T17:06:40.840Z,23.35
2018-01-18T17:09:08.605Z,9.65
2018-01-18T17:11:36.344Z,7.30
2018-01-18T17:14:05.752Z,13.55
2018-01-18T17:16:34.709Z,8.73
2018-01-18T17:19:02.473Z,6.72
2018-01-18T17:21:32.595Z,10.68
2018-01-18T17:24:00.501Z,10.50
2018-01-18T17:26:29.195Z,14.00
2018-01-18T17:28:56.982Z,9.18
2018-01-18T17:31:24.899Z,8.20
2018-01-18T17:33:52.849Z,8.65
2018-01-18T17:36:22.051Z,10.40
2018-01-18T17:38:51.140Z,18.27
2018-01-18T17:41:18.980Z,11.68
2018-01-18T17:43:49.023Z,12.55
2018-01-18T17:46:19.706Z,9.30
2018-01-18T17:48:47.435Z,7.50
2018-01-18T17:51:21.896Z,9.65
2018-01-18T17:53:49.834Z,12.70
2018-01-18T17:56:19.057Z,8.63
2018-01-18T17:58:46.649Z,9.88
2018-01-18T18:01:15.496Z,10.80
2018-01-18T18:03:43.215Z,8.57
2018-01-18T18:06:10.894Z,9.35
2018-01-18T18:08:39.063Z,12.52
2018-01-18T18:11:07.534Z,9.77
2018-01-18T18:13:35.472Z,13.80
2018-01-18T18:16:03.783Z,6.85
2018-01-18T18:18:32.415Z,10.82
2018-01-18T18:21:00.816Z,13.43
2018-01-18T18:23:31.318Z,17.92
2018-01-18T18:25:59.329Z,17.73
2018-01-18T18:28:27.319Z,15.18
2018-01-18T18:30:55.882Z,10.98
2018-01-18T18:33:25.711Z,9.68
2018-01-18T18:35:55.881Z,7.68
2018-01-18T18:40:55.494Z,11.80
2018-01-18T18:43:24.264Z,15.50
2018-01-18T18:45:53.180Z,8.68
2018-01-18T18:48:21.187Z,10.80
2018-01-18T18:50:50.068Z,9.50
2018-01-18T18:53:18.430Z,19.80
2018-01-18T18:55:46.330Z,12.37
2018-01-18T18:58:15.408Z,12.70
2018-01-18T19:00:43.188Z,19.85
2018-01-18T19:03:15.061Z,29.65
2018-01-18T19:05:42.748Z,31.55
2018-01-18T19:08:12.127Z,66.40
2018-01-18T19:10:40.094Z,25.62
2018-01-18T19:13:07.729Z,30.58
2018-01-18T19:15:37.757Z,27.90
2018-01-18T19:18:06.441Z,18.80
2018-01-18T19:20:37.536Z,21.85
2018-01-18T19:23:06.564Z,24.80
2018-01-18T19:25:37.144Z,22.30
2018-01-18T19:28:05.643Z,19.95
2018-01-18T19:30:34.334Z,26.12
2018-01-18T19:33:02.060Z,18.65
2018-01-18T19:35:31.445Z,27.77
2018-01-18T19:38:00.163Z,29.15
2018-01-18T19:40:27.880Z,23.73
2018-01-18T19:42:56.598Z,21.87
2018-01-18T19:45:25.047Z,28.80
2018-01-18T19:47:54.351Z,24.63
2018-01-18T19:50:22.570Z,33.00
2018-01-18T19:52:50.509Z,27.55
2018-01-18T19:55:18.569Z,37.53
2018-01-18T19:57:46.270Z,30.62
2018-01-18T20:00:14.776Z,37.00
2018-01-18T20:02:42.471Z,45.05
2018-01-18T20:05:11.842Z,42.45
2018-01-18T20:07:40.446Z,51.95
2018-01-18T20:10:09.352Z,46.17
2018-01-18T20:12:38.002Z,56.40
2018-01-18T20:15:06.837Z,45.25
2018-01-18T20:17:37.118Z,50.60
2018-01-18T20:20:08.889Z,45.03
2018-01-18T20:22:36.859Z,47.72
2018-01-18T20:25:05.674Z,48.58
2018-01-18T20:27:33.407Z,44.80
2018-01-18T20:30:02.067Z,40.30
2018-01-18T20:32:30.311Z,46.75
2018-01-18T20:34:59.008Z,36.90
2018-01-18T20:37:27.691Z,30.25
2018-01-18T20:39:55.326Z,33.50
2018-01-18T20:42:23.887Z,30.25
2018-01-18T20:44:51.521Z,30.00
2018-01-18T20:47:19.201Z,32.38
2018-01-18T20:49:46.949Z,32.35
2018-01-18T20:52:15.069Z,36.03
2018-01-18T20:54:44.261Z,34.95
2018-01-18T20:57:11.867Z,34.97
2018-01-18T20:59:39.468Z,31.33
2018-01-18T21:02:07.168Z,39.80
2018-01-18T21:04:34.830Z,34.60
2018-01-18T21:07:02.495Z,31.08
2018-01-18T21:09:30.200Z,32.72
2018-01-18T21:11:57.977Z,29.55
2018-01-18T21:14:25.776Z,35.65
2018-01-18T21:16:53.516Z,40.22
2018-01-18T21:19:21.165Z,47.22
2018-01-18T21:21:49.218Z,39.45
2018-01-18T21:24:17.080Z,54.42
2018-01-18T21:26:44.792Z,42.95
2018-01-18T21:29:12.445Z,47.75
2018-01-18T21:31:40.098Z,38.38
2018-01-18T21:34:07.908Z,35.70
2018-01-18T21:36:35.552Z,38.42
2018-01-18T21:39:03.232Z,36.40
2018-01-18T21:41:30.871Z,42.72
2018-01-18T21:43:58.470Z,44.17
2018-01-18T21:46:26.863Z,63.03
2018-01-18T21:48:55.780Z,58.10
2018-01-18T21:51:23.422Z,62.30
2018-01-18T21:53:51.094Z,58.08
2018-01-18T21:56:19.399Z,49.53
2018-01-18T21:58:47.424Z,61.33
2018-01-18T22:01:15.067Z,49.33
2018-01-18T22:03:42.652Z,49.00
2018-01-18T22:06:10.431Z,59.67
2018-01-18T22:08:38.133Z,43.65
2018-01-18T22:11:05.721Z,42.90
2018-01-18T22:13:33.353Z,39.65
2018-01-18T22:16:00.941Z,36.50
2018-01-18T22:18:28.544Z,35.72
2018-01-18T22:20:56.130Z,33.95
2018-01-18T22:23:24.552Z,41.42
2018-01-18T22:25:53.225Z,36.72
2018-01-18T22:28:21.056Z,31.45
2018-01-18T22:30:48.700Z,31.85
2018-01-18T22:33:17.249Z,32.13
2018-01-18T22:35:44.835Z,37.85
2018-01-18T22:38:12.472Z,31.33
2018-01-18T22:40:40.123Z,28.00
2018-01-18T22:43:07.733Z,32.88
2018-01-18T22:45:35.420Z,28.15
2018-01-18T22:48:03.041Z,27.17
2018-01-18T22:50:32.105Z,30.37
2018-01-18T22:52:59.721Z,27.15
2018-01-18T22:55:27.294Z,27.08
2018-01-18T22:57:54.884Z,30.25
2018-01-18T23:00:23.056Z,28.23
2018-01-18T23:02:50.721Z,38.83
2018-01-18T23:05:18.335Z,41.65
2018-01-18T23:07:45.934Z,28.90
2018-01-18T23:10:13.642Z,44.20
2018-01-18T23:12:41.310Z,36.53
2018-01-18T23:15:08.988Z,40.20
2018-01-18T23:17:36.654Z,42.03
2018-01-18T23:20:04.357Z,34.72
2018-01-18T23:22:31.998Z,33.28
2018-01-18T23:24:59.701Z,36.25
2018-01-18T23:27:27.335Z,33.58
2018-01-18T23:29:55.020Z,35.10
2018-01-18T23:32:22.985Z,32.67
2018-01-18T23:34:50.633Z,35.17
2018-01-18T23:37:18.210Z,33.55
2018-01-18T23:39:45.823Z,33.33
2018-01-18T23:42:13.477Z,33.35
2018-01-18T23:44:41.147Z,38.53
2018-01-18T23:47:08.822Z,48.17
2018-01-18T23:49:36.579Z,35.22
2018-01-18T23:52:04.225Z,41.37
2018-01-18T23:54:31.885Z,41.75
2018-01-18T23:56:59.522Z,40.25
2018-01-18T23:59:28.094Z,46.30
